Terminal Aerodrome Forecast
Issued by NWS Northern Indiana

Home | Current Version | Previous Version | Graphics & Text | Print | Product List | Glossary On
Versions: 1 2 3 4 5 6 7 8 9 10 11 12 13
202
FTUS43 KIWX 161730
TAFFWA
TAF
KFWA 161730Z 1618/1718 30007KT P6SM BKN040
     FM170000 20004KT P6SM SKC
     FM171400 22014G18KT P6SM SKC=

USA.gov is the U.S. government's official web portal to all federal, state and local government web resources and services.